Time;durP1;ratioP1;P1;durP2;ratioP2;P2;SDS_P1;SDS_P2;PMS_P1;PMS_P2;Temp;Humidity;BMP_temperature;BMP_pressure;BME280_temperature;BME280_humidity;BME280_pressure;Samples;Min_cycle;Max_cycle;Signal;HPM_P1;HPM_P2
2021/10/24 00:00:10;;;;;;;908.45;673.33;;;;;;;;;;5088100;28;20376;-80
2021/10/24 00:02:36;;;;;;;905.33;666.05;;;;;;;;;;5088194;28;20021;-80
2021/10/24 00:05:02;;;;;;;906.50;662.72;;;;;;;;;;5069679;28;20039;-79
2021/10/24 00:07:28;;;;;;;904.80;658.15;;;;;;;;;;5070620;28;20031;-80
2021/10/24 00:09:54;;;;;;;902.00;651.90;;;;;;;;;;5056396;28;20028;-79
2021/10/24 00:12:20;;;;;;;900.95;653.75;;;;;;;;;;5072566;28;20055;-79
2021/10/24 00:14:46;;;;;;;900.20;640.67;;;;;;;;;;5076883;28;20472;-80
2021/10/24 00:17:13;;;;;;;907.13;676.17;;;;;;;;;;5072844;28;20134;-80
2021/10/24 00:19:39;;;;;;;905.30;661.70;;;;;;;;;;5088253;28;20048;-80
2021/10/24 00:22:06;;;;;;;890.22;612.40;;;;;;;;;;5057079;28;20129;-79
2021/10/24 00:24:32;;;;;;;900.22;638.05;;;;;;;;;;5069658;28;20619;-80
2021/10/24 00:26:58;;;;;;;889.78;610.75;;;;;;;;;;5070362;28;20020;-79
2021/10/24 00:29:24;;;;;;;906.25;664.05;;;;;;;;;;5088311;28;20468;-79
2021/10/24 00:31:50;;;;;;;896.38;626.58;;;;;;;;;;5088158;28;20095;-79
2021/10/24 00:34:17;;;;;;;903.67;651.88;;;;;;;;;;5070362;28;20115;-80
2021/10/24 00:36:43;;;;;;;904.35;653.97;;;;;;;;;;5070187;28;20042;-80
2021/10/24 00:39:09;;;;;;;908.90;670.83;;;;;;;;;;5088111;28;20403;-80
2021/10/24 00:41:35;;;;;;;903.28;656.75;;;;;;;;;;5070281;28;20032;-80
2021/10/24 00:44:17;;;;;;;905.15;657.90;;;;;;;;;;5067502;28;20512;-79
2021/10/24 00:46:43;;;;;;;900.25;644.63;;;;;;;;;;5069977;28;20059;-80
2021/10/24 00:49:09;;;;;;;905.88;662.15;;;;;;;;;;5069623;28;20414;-80
2021/10/24 00:51:37;;;;;;;906.85;665.30;;;;;;;;;;5086852;28;20086;-80
2021/10/24 00:54:03;;;;;;;911.08;677.00;;;;;;;;;;5086881;28;20056;-80
2021/10/24 00:56:29;;;;;;;904.40;653.38;;;;;;;;;;5088540;28;20067;-80
2021/10/24 00:58:55;;;;;;;904.50;653.63;;;;;;;;;;5070459;28;20028;-80
2021/10/24 01:01:21;;;;;;;891.28;603.47;;;;;;;;;;5087705;28;20054;-80
2021/10/24 01:03:47;;;;;;;890.35;603.70;;;;;;;;;;5087879;28;20028;-80
2021/10/24 01:06:13;;;;;;;905.17;650.63;;;;;;;;;;5087968;28;20028;-81
2021/10/24 01:08:39;;;;;;;899.40;629.83;;;;;;;;;;5086856;28;20081;-80
2021/10/24 01:11:05;;;;;;;890.75;590.42;;;;;;;;;;5073454;28;20498;-80
2021/10/24 01:13:35;;;;;;;888.67;591.72;;;;;;;;;;5067941;28;20020;-80
2021/10/24 01:16:30;;;;;;;885.03;571.83;;;;;;;;;;5069416;28;20075;-80
2021/10/24 01:18:56;;;;;;;895.13;594.03;;;;;;;;;;5053513;28;20151;-80
2021/10/24 01:21:24;;;;;;;898.65;611.63;;;;;;;;;;5082692;28;20115;-81
2021/10/24 01:23:50;;;;;;;890.65;597.03;;;;;;;;;;5075146;28;20127;-80
2021/10/24 01:26:16;;;;;;;889.83;588.70;;;;;;;;;;5086517;28;20088;-80
2021/10/24 01:28:42;;;;;;;890.53;584.95;;;;;;;;;;5088470;28;20039;-81
2021/10/24 01:31:08;;;;;;;897.47;619.90;;;;;;;;;;5089808;28;20523;-80
2021/10/24 01:33:34;;;;;;;900.80;628.60;;;;;;;;;;5091059;28;20467;-81
2021/10/24 01:36:01;;;;;;;893.15;606.65;;;;;;;;;;5091184;28;20054;-80
2021/10/24 01:38:28;;;;;;;902.65;637.70;;;;;;;;;;5073132;28;20080;-80
2021/10/24 01:40:55;;;;;;;894.95;611.72;;;;;;;;;;5073159;28;20119;-81
2021/10/24 01:43:21;;;;;;;898.75;622.95;;;;;;;;;;5070629;28;20150;-80
2021/10/24 01:45:47;;;;;;;892.30;603.42;;;;;;;;;;5072384;28;20028;-80
2021/10/24 01:48:14;;;;;;;887.05;588.22;;;;;;;;;;5054857;28;20036;-80
2021/10/24 01:50:41;;;;;;;900.80;622.80;;;;;;;;;;5075988;28;20649;-80
2021/10/24 01:53:10;;;;;;;889.53;591.30;;;;;;;;;;5090951;28;20044;-80
2021/10/24 01:55:36;;;;;;;885.08;576.17;;;;;;;;;;5072014;28;20380;-80
2021/10/24 01:58:03;;;;;;;887.97;588.53;;;;;;;;;;5091135;28;20107;-80
2021/10/24 02:00:29;;;;;;;894.60;606.75;;;;;;;;;;5079258;28;20621;-80
2021/10/24 02:02:55;;;;;;;903.10;635.65;;;;;;;;;;5082147;28;20395;-80
2021/10/24 02:05:21;;;;;;;892.67;599.65;;;;;;;;;;5090372;28;20020;-79
2021/10/24 02:07:47;;;;;;;894.25;604.85;;;;;;;;;;5072901;28;20023;-81
2021/10/24 02:10:14;;;;;;;893.88;606.90;;;;;;;;;;5065120;28;20060;-80
2021/10/24 02:12:41;;;;;;;893.30;600.08;;;;;;;;;;5074550;28;20020;-80
2021/10/24 02:15:08;;;;;;;900.80;626.20;;;;;;;;;;5071027;28;20052;-81
2021/10/24 02:17:34;;;;;;;895.42;608.17;;;;;;;;;;5091061;28;20047;-80
2021/10/24 02:20:00;;;;;;;898.60;612.97;;;;;;;;;;5072661;28;20024;-80
2021/10/24 02:22:27;;;;;;;884.85;570.22;;;;;;;;;;5057272;28;20261;-80
2021/10/24 02:24:53;;;;;;;881.53;560.10;;;;;;;;;;5072622;28;20316;-80
2021/10/24 02:27:19;;;;;;;892.42;592.50;;;;;;;;;;5072101;28;20090;-80
2021/10/24 02:29:45;;;;;;;889.63;582.58;;;;;;;;;;5072484;28;20028;-80
2021/10/24 02:32:11;;;;;;;891.38;595.22;;;;;;;;;;5089655;28;20032;-80
2021/10/24 02:34:38;;;;;;;899.08;616.55;;;;;;;;;;5082250;28;20036;-80
2021/10/24 02:37:04;;;;;;;879.83;563.53;;;;;;;;;;5072320;28;20131;-80
2021/10/24 02:39:30;;;;;;;898.03;610.20;;;;;;;;;;5072186;28;20035;-80
2021/10/24 02:41:56;;;;;;;894.95;603.33;;;;;;;;;;5071473;28;20035;-80
2021/10/24 02:44:23;;;;;;;889.63;593.20;;;;;;;;;;5069677;28;20130;-80
2021/10/24 02:46:49;;;;;;;887.17;584.47;;;;;;;;;;5089482;28;20035;-80
2021/10/24 02:49:15;;;;;;;882.70;567.22;;;;;;;;;;5072275;28;20391;-79
2021/10/24 02:51:41;;;;;;;895.33;609.08;;;;;;;;;;5071395;28;20034;-79
2021/10/24 02:54:07;;;;;;;887.08;577.45;;;;;;;;;;5055628;28;20062;-80
2021/10/24 02:56:33;;;;;;;886.20;583.80;;;;;;;;;;5075565;28;20023;-80
2021/10/24 02:58:59;;;;;;;879.50;549.72;;;;;;;;;;5089958;28;20020;-79
2021/10/24 03:01:25;;;;;;;883.05;563.88;;;;;;;;;;5071446;28;20031;-80
2021/10/24 03:03:51;;;;;;;881.20;556.92;;;;;;;;;;5064740;28;20036;-80
2021/10/24 03:06:18;;;;;;;877.30;539.92;;;;;;;;;;5067162;28;20016;-80
2021/10/24 03:08:44;;;;;;;878.72;550.42;;;;;;;;;;5069554;28;20119;-79
2021/10/24 03:11:10;;;;;;;881.97;563.65;;;;;;;;;;5071047;28;20173;-79
2021/10/24 03:13:36;;;;;;;890.17;582.85;;;;;;;;;;5086869;28;20039;-80
2021/10/24 03:16:02;;;;;;;875.15;536.80;;;;;;;;;;5055324;28;20053;-80
2021/10/24 03:18:28;;;;;;;887.95;582.80;;;;;;;;;;5047937;28;20385;-80
2021/10/24 03:20:54;;;;;;;877.78;544.28;;;;;;;;;;5049032;28;20043;-79
2021/10/24 03:23:20;;;;;;;882.22;561.08;;;;;;;;;;5061036;28;20030;-79
2021/10/24 03:25:46;;;;;;;891.88;589.92;;;;;;;;;;5029680;28;20056;-79
2021/10/24 03:28:13;;;;;;;874.65;544.25;;;;;;;;;;5045601;28;20532;-79
2021/10/24 03:30:39;;;;;;;879.05;551.75;;;;;;;;;;5047687;28;20021;-79
2021/10/24 03:33:05;;;;;;;887.97;577.78;;;;;;;;;;5046930;28;20131;-79
2021/10/24 03:35:31;;;;;;;884.60;569.60;;;;;;;;;;5067363;28;20082;-79
2021/10/24 03:37:57;;;;;;;879.50;550.33;;;;;;;;;;5053180;28;20063;-79
2021/10/24 03:40:23;;;;;;;870.10;513.67;;;;;;;;;;5047636;28;20025;-79
2021/10/24 03:42:49;;;;;;;866.17;505.65;;;;;;;;;;5046326;28;20039;-79
2021/10/24 03:45:15;;;;;;;867.63;512.10;;;;;;;;;;5047291;28;20033;-79
2021/10/24 03:47:41;;;;;;;865.78;494.50;;;;;;;;;;5048340;28;20071;-79
2021/10/24 03:50:07;;;;;;;878.28;533.88;;;;;;;;;;5046894;28;20124;-80
2021/10/24 03:52:33;;;;;;;873.03;517.90;;;;;;;;;;5046107;28;20086;-79
2021/10/24 03:54:59;;;;;;;879.65;543.00;;;;;;;;;;5049072;28;20029;-79
2021/10/24 03:57:26;;;;;;;867.28;499.90;;;;;;;;;;5046919;28;20048;-79
2021/10/24 03:59:53;;;;;;;878.35;531.95;;;;;;;;;;5047600;28;20426;-80
2021/10/24 04:02:19;;;;;;;879.30;540.30;;;;;;;;;;5045181;28;20536;-79
2021/10/24 04:04:45;;;;;;;862.78;489.92;;;;;;;;;;5046989;28;20037;-78
2021/10/24 04:07:11;;;;;;;873.60;525.13;;;;;;;;;;5047778;28;20021;-79
2021/10/24 04:09:37;;;;;;;860.42;473.92;;;;;;;;;;5047480;28;20381;-79
2021/10/24 04:12:04;;;;;;;855.90;460.55;;;;;;;;;;5058364;28;20025;-79
2021/10/24 04:14:30;;;;;;;861.03;471.27;;;;;;;;;;5045073;28;20037;-80
2021/10/24 04:16:56;;;;;;;849.95;436.48;;;;;;;;;;5046501;28;20049;-79
2021/10/24 04:19:22;;;;;;;847.92;427.73;;;;;;;;;;5063846;28;20477;-79
2021/10/24 04:21:48;;;;;;;848.72;425.10;;;;;;;;;;5045800;28;20039;-79
2021/10/24 04:24:14;;;;;;;841.97;418.25;;;;;;;;;;5046097;28;20037;-79
2021/10/24 04:26:40;;;;;;;859.10;465.60;;;;;;;;;;5046946;28;20021;-79
2021/10/24 04:29:06;;;;;;;841.72;411.80;;;;;;;;;;5045521;28;20049;-79
2021/10/24 04:31:32;;;;;;;845.53;421.40;;;;;;;;;;5046025;28;20055;-79
2021/10/24 04:33:58;;;;;;;844.67;418.23;;;;;;;;;;5048003;28;20046;-79
2021/10/24 04:36:24;;;;;;;848.72;430.13;;;;;;;;;;5048206;28;20055;-78
2021/10/24 04:38:50;;;;;;;849.92;432.08;;;;;;;;;;5046328;28;20025;-79
2021/10/24 04:41:16;;;;;;;848.13;428.95;;;;;;;;;;5045002;28;20037;-79
2021/10/24 04:43:42;;;;;;;849.95;434.65;;;;;;;;;;5044753;28;20425;-79
2021/10/24 04:46:08;;;;;;;847.10;426.70;;;;;;;;;;5046230;28;20033;-79
2021/10/24 04:48:34;;;;;;;853.38;445.52;;;;;;;;;;5047072;28;20072;-79
2021/10/24 04:51:00;;;;;;;846.65;425.30;;;;;;;;;;5045572;28;20036;-80
2021/10/24 04:53:26;;;;;;;851.90;441.45;;;;;;;;;;5046989;28;20029;-79
2021/10/24 04:55:53;;;;;;;850.58;434.70;;;;;;;;;;5047377;28;20021;-79
2021/10/24 04:58:19;;;;;;;853.97;445.27;;;;;;;;;;5048701;28;20032;-80
2021/10/24 05:00:45;;;;;;;857.95;454.20;;;;;;;;;;5049268;28;20103;-79
2021/10/24 05:03:11;;;;;;;862.50;473.17;;;;;;;;;;5050414;28;20128;-79
2021/10/24 05:05:38;;;;;;;857.40;461.88;;;;;;;;;;5048908;28;20108;-80
2021/10/24 05:08:04;;;;;;;862.83;474.08;;;;;;;;;;5050528;28;20060;-79
2021/10/24 05:10:30;;;;;;;859.33;465.08;;;;;;;;;;5050546;28;20071;-80
2021/10/24 05:12:56;;;;;;;861.55;467.63;;;;;;;;;;5051142;28;20060;-79
2021/10/24 05:15:23;;;;;;;851.47;441.75;;;;;;;;;;5053050;28;20049;-79
2021/10/24 05:17:49;;;;;;;851.65;443.05;;;;;;;;;;5071470;28;20028;-79
2021/10/24 05:20:15;;;;;;;855.78;449.85;;;;;;;;;;5071379;28;20039;-79
2021/10/24 05:22:41;;;;;;;854.72;441.40;;;;;;;;;;5065269;28;20033;-79
2021/10/24 05:25:07;;;;;;;850.75;437.38;;;;;;;;;;5071617;28;20031;-79
2021/10/24 05:27:34;;;;;;;852.55;443.77;;;;;;;;;;5070800;28;20052;-79
2021/10/24 05:30:00;;;;;;;861.65;475.02;;;;;;;;;;5070176;28;20028;-80
2021/10/24 05:32:25;;;;;;;856.67;451.50;;;;;;;;;;5065329;28;20123;-79
2021/10/24 05:34:51;;;;;;;856.67;453.55;;;;;;;;;;5069266;28;20033;-79
2021/10/24 05:37:17;;;;;;;851.78;440.15;;;;;;;;;;5069009;28;20158;-79
2021/10/24 05:39:44;;;;;;;853.80;454.70;;;;;;;;;;5069697;28;20068;-79
2021/10/24 05:42:11;;;;;;;861.53;471.20;;;;;;;;;;5068307;28;20060;-79
2021/10/24 05:44:37;;;;;;;857.90;456.88;;;;;;;;;;5068132;28;20111;-79
2021/10/24 05:47:04;;;;;;;864.22;480.38;;;;;;;;;;5068750;28;20028;-79
2021/10/24 05:49:30;;;;;;;862.17;471.88;;;;;;;;;;5069631;28;20029;-79
2021/10/24 05:51:56;;;;;;;865.45;493.20;;;;;;;;;;5068379;28;20031;-79
2021/10/24 05:54:22;;;;;;;856.42;452.73;;;;;;;;;;5065312;28;20276;-79
2021/10/24 05:56:48;;;;;;;867.70;492.08;;;;;;;;;;5062952;28;20038;-79
2021/10/24 05:59:14;;;;;;;862.63;470.13;;;;;;;;;;5069254;28;20127;-79
2021/10/24 06:01:40;;;;;;;865.20;478.20;;;;;;;;;;5068130;28;20607;-80
2021/10/24 06:04:06;;;;;;;858.15;457.02;;;;;;;;;;5070846;28;20039;-79
2021/10/24 06:06:32;;;;;;;864.33;474.33;;;;;;;;;;5066969;28;20484;-79
2021/10/24 06:09:00;;;;;;;847.65;430.55;;;;;;;;;;5052913;28;20465;-80
2021/10/24 06:11:28;;;;;;;854.78;444.48;;;;;;;;;;5048699;28;20116;-79
2021/10/24 06:13:55;;;;;;;876.28;473.45;;;;;;;;;;5063337;28;20064;-80
2021/10/24 06:16:21;;;;;;;855.20;444.33;;;;;;;;;;5054363;28;20044;-79
2021/10/24 06:18:47;;;;;;;866.22;474.98;;;;;;;;;;5043654;28;20448;-79
2021/10/24 06:21:13;;;;;;;856.03;438.02;;;;;;;;;;5037756;28;20474;-79
2021/10/24 06:23:39;;;;;;;850.42;430.63;;;;;;;;;;5035843;28;20033;-79
2021/10/24 06:26:05;;;;;;;846.72;417.20;;;;;;;;;;5045235;28;20437;-79
2021/10/24 06:28:33;;;;;;;848.63;426.20;;;;;;;;;;5036679;28;20272;-79
2021/10/24 06:30:59;;;;;;;849.42;430.60;;;;;;;;;;5039105;28;20608;-79
2021/10/24 06:33:25;;;;;;;855.10;444.10;;;;;;;;;;5034359;28;20045;-79
2021/10/24 06:35:51;;;;;;;854.83;445.17;;;;;;;;;;5030825;28;20048;-80
2021/10/24 06:38:20;;;;;;;855.03;442.10;;;;;;;;;;5045988;28;20384;-79
2021/10/24 06:40:48;;;;;;;852.17;432.88;;;;;;;;;;5034556;28;20404;-79
2021/10/24 06:43:14;;;;;;;857.10;446.17;;;;;;;;;;5041985;28;20365;-79
2021/10/24 06:45:40;;;;;;;853.63;441.55;;;;;;;;;;5039533;28;20041;-79
2021/10/24 06:48:06;;;;;;;854.80;448.98;;;;;;;;;;5043987;28;20085;-80
2021/10/24 06:50:33;;;;;;;861.53;460.70;;;;;;;;;;5029162;28;20065;-79
2021/10/24 06:52:59;;;;;;;860.13;463.80;;;;;;;;;;5030585;28;20067;-79
2021/10/24 06:55:25;;;;;;;860.53;465.63;;;;;;;;;;5045064;28;20052;-79
2021/10/24 06:57:52;;;;;;;858.03;464.02;;;;;;;;;;5045708;28;20060;-79
2021/10/24 07:00:19;;;;;;;860.05;467.65;;;;;;;;;;5046549;28;20484;-80
2021/10/24 07:02:45;;;;;;;858.35;477.27;;;;;;;;;;5045327;28;20025;-80
2021/10/24 07:05:11;;;;;;;863.38;489.67;;;;;;;;;;5033550;28;20038;-79
2021/10/24 07:07:38;;;;;;;869.67;504.98;;;;;;;;;;5054806;28;20025;-79
2021/10/24 07:10:05;;;;;;;866.60;512.50;;;;;;;;;;5050892;28;20408;-79
2021/10/24 07:12:31;;;;;;;864.28;511.77;;;;;;;;;;5047801;28;20478;-80
2021/10/24 07:14:57;;;;;;;869.47;526.08;;;;;;;;;;5047727;28;20033;-79
2021/10/24 07:17:23;;;;;;;864.50;514.10;;;;;;;;;;5070531;28;20028;-80
2021/10/24 07:19:49;;;;;;;870.97;527.95;;;;;;;;;;5088769;28;20034;-81
2021/10/24 07:22:15;;;;;;;876.05;564.42;;;;;;;;;;5071012;28;20498;-80
2021/10/24 07:24:41;;;;;;;876.75;565.72;;;;;;;;;;5072197;28;20053;-80
2021/10/24 07:27:07;;;;;;;879.78;578.30;;;;;;;;;;5070540;28;20461;-80
2021/10/24 07:29:34;;;;;;;880.90;588.65;;;;;;;;;;5088744;28;20016;-80
2021/10/24 07:32:00;;;;;;;882.15;593.75;;;;;;;;;;5070866;28;20331;-79
2021/10/24 07:34:26;;;;;;;897.35;656.05;;;;;;;;;;5071338;28;20028;-80
2021/10/24 07:36:52;;;;;;;890.50;624.85;;;;;;;;;;5070296;28;20035;-80
2021/10/24 07:39:21;;;;;;;907.85;628.28;;;;;;;;;;5069829;28;20403;-79
2021/10/24 07:41:48;;;;;;;890.58;626.30;;;;;;;;;;5070684;28;20057;-80
2021/10/24 07:44:15;;;;;;;887.13;615.35;;;;;;;;;;5068244;28;20511;-80
2021/10/24 07:46:41;;;;;;;924.05;761.35;;;;;;;;;;5082130;28;20036;-80
2021/10/24 07:49:07;;;;;;;927.55;766.35;;;;;;;;;;5088323;28;20164;-80
2021/10/24 07:51:34;;;;;;;919.13;742.85;;;;;;;;;;5071508;28;20028;-80
2021/10/24 07:54:02;;;;;;;933.13;783.55;;;;;;;;;;5069424;28;20778;-79
2021/10/24 07:56:29;;;;;;;941.22;813.42;;;;;;;;;;5072482;28;20472;-80
2021/10/24 07:58:56;;;;;;;940.88;817.83;;;;;;;;;;5069529;28;20441;-80
2021/10/24 08:01:22;;;;;;;936.25;815.42;;;;;;;;;;5069639;28;20115;-80
2021/10/24 08:03:48;;;;;;;1007.53;899.72;;;;;;;;;;5070255;28;20289;-80
2021/10/24 08:06:16;;;;;;;974.53;868.38;;;;;;;;;;5087648;28;20078;-80
2021/10/24 08:08:42;;;;;;;1009.20;901.70;;;;;;;;;;5069627;28;20035;-79
2021/10/24 08:11:08;;;;;;;960.08;855.53;;;;;;;;;;5068643;28;20023;-81
2021/10/24 08:13:34;;;;;;;1029.47;921.38;;;;;;;;;;5068756;28;20302;-80
2021/10/24 08:16:01;;;;;;;994.03;888.25;;;;;;;;;;5069717;28;20056;-80
2021/10/24 08:18:27;;;;;;;1035.43;926.97;;;;;;;;;;5087314;28;20483;-79
2021/10/24 08:20:53;;;;;;;1036.90;928.83;;;;;;;;;;5075436;28;20020;-79
2021/10/24 08:23:19;;;;;;;1002.15;895.88;;;;;;;;;;5086241;28;20109;-79
2021/10/24 08:25:45;;;;;;;1040.50;932.17;;;;;;;;;;5071557;28;20054;-79
2021/10/24 08:28:12;;;;;;;1034.00;925.70;;;;;;;;;;5088670;28;20149;-79
2021/10/24 08:30:38;;;;;;;1042.53;934.08;;;;;;;;;;5077058;28;20043;-81
2021/10/24 08:33:04;;;;;;;1049.53;940.75;;;;;;;;;;5072817;28;20035;-79
2021/10/24 08:35:30;;;;;;;1041.10;932.63;;;;;;;;;;5072732;28;20024;-79
2021/10/24 08:37:57;;;;;;;1028.85;921.17;;;;;;;;;;5092616;28;20016;-79
2021/10/24 08:40:23;;;;;;;1014.88;907.80;;;;;;;;;;5091510;28;20070;-79
2021/10/24 08:42:57;;;;;;;996.85;890.05;;;;;;;;;;5062435;28;20032;-79
2021/10/24 08:45:23;;;;;;;976.17;869.97;;;;;;;;;;5070718;28;20115;-80
2021/10/24 08:47:49;;;;;;;927.63;802.95;;;;;;;;;;5091398;28;20064;-79
2021/10/24 08:50:15;;;;;;;950.05;844.55;;;;;;;;;;5091063;28;20028;-79
2021/10/24 08:52:43;;;;;;;951.88;846.45;;;;;;;;;;5073482;28;20067;-80
2021/10/24 08:55:10;;;;;;;932.30;813.15;;;;;;;;;;5073658;28;20101;-80
2021/10/24 08:57:37;;;;;;;933.28;811.75;;;;;;;;;;5073647;28;20059;-80
2021/10/24 09:00:04;;;;;;;960.33;854.72;;;;;;;;;;5074006;28;20464;-79
2021/10/24 09:02:49;;;;;;;935.33;811.95;;;;;;;;;;5073419;28;20086;-79
2021/10/24 09:05:29;;;;;;;927.92;783.85;;;;;;;;;;5072940;28;20044;-78
2021/10/24 09:07:56;;;;;;;911.10;737.72;;;;;;;;;;5073318;28;20036;-79
2021/10/24 09:10:35;;;;;;;930.53;777.65;;;;;;;;;;5072714;28;20028;-79
2021/10/24 09:13:04;;;;;;;904.90;711.13;;;;;;;;;;5088843;28;20020;-78
2021/10/24 09:15:43;;;;;;;915.20;739.30;;;;;;;;;;5089611;28;20044;-81
2021/10/24 09:18:09;;;;;;;912.20;726.85;;;;;;;;;;5073538;28;20032;-79
2021/10/24 09:20:35;;;;;;;911.65;725.45;;;;;;;;;;5081619;28;20147;-79
2021/10/24 09:23:09;;;;;;;908.20;711.22;;;;;;;;;;5069541;28;20103;-79
2021/10/24 09:25:46;;;;;;;911.30;716.97;;;;;;;;;;5067965;28;20028;-81
2021/10/24 09:28:14;;;;;;;895.45;676.65;;;;;;;;;;5076148;28;20046;-78
2021/10/24 09:30:46;;;;;;;907.97;707.88;;;;;;;;;;5075641;28;20024;-79
2021/10/24 09:33:12;;;;;;;896.35;671.78;;;;;;;;;;5089360;28;20509;-78
2021/10/24 09:35:42;;;;;;;911.80;728.03;;;;;;;;;;5065315;28;20034;-78
2021/10/24 09:38:13;;;;;;;902.90;694.58;;;;;;;;;;5086724;28;20054;-81
2021/10/24 09:40:46;;;;;;;918.00;735.58;;;;;;;;;;5070477;28;20037;-81
2021/10/24 09:43:20;;;;;;;913.55;731.58;;;;;;;;;;5085376;28;20028;-80
2021/10/24 09:45:59;;;;;;;925.47;766.10;;;;;;;;;;5072770;28;20035;-82
2021/10/24 09:48:33;;;;;;;906.60;720.15;;;;;;;;;;5073930;28;20066;-78
2021/10/24 09:51:03;;;;;;;916.92;745.72;;;;;;;;;;5062068;28;20017;-83
2021/10/24 09:53:29;;;;;;;904.90;718.28;;;;;;;;;;5069204;28;20026;-79
2021/10/24 09:55:55;;;;;;;909.80;723.83;;;;;;;;;;5066679;28;20062;-81
2021/10/24 09:58:22;;;;;;;906.83;721.03;;;;;;;;;;5065512;28;20028;-81
2021/10/24 10:00:48;;;;;;;903.08;705.90;;;;;;;;;;5063172;28;20034;-78
2021/10/24 10:03:15;;;;;;;906.47;705.45;;;;;;;;;;5067910;28;20523;-79
2021/10/24 10:05:41;;;;;;;907.63;711.42;;;;;;;;;;5087757;28;20361;-82
2021/10/24 10:08:17;;;;;;;911.60;728.13;;;;;;;;;;5071563;28;20027;-80
2021/10/24 10:10:59;;;;;;;906.40;709.03;;;;;;;;;;5087826;28;20024;-80
2021/10/24 10:13:29;;;;;;;913.40;720.47;;;;;;;;;;5059936;28;20028;-79
2021/10/24 10:15:56;;;;;;;906.05;701.40;;;;;;;;;;5062466;28;20121;-80
2021/10/24 10:18:22;;;;;;;913.85;732.47;;;;;;;;;;5089867;28;20036;-79
2021/10/24 10:20:52;;;;;;;915.10;733.22;;;;;;;;;;5089603;28;20047;-79
2021/10/24 10:23:21;;;;;;;933.40;783.78;;;;;;;;;;5072174;28;20031;-80
2021/10/24 10:25:47;;;;;;;923.88;754.28;;;;;;;;;;5075522;28;20023;-80
2021/10/24 10:28:37;;;;;;;905.88;712.92;;;;;;;;;;5074573;28;20016;-78
2021/10/24 10:31:09;;;;;;;666.72;531.55;;;;;;;;;;5071349;28;20023;-80
2021/10/24 10:33:36;;;;;;;922.55;757.67;;;;;;;;;;5067207;28;20043;-80
2021/10/24 10:36:03;;;;;;;939.45;817.25;;;;;;;;;;5066212;28;20035;-82
2021/10/24 10:38:31;;;;;;;935.67;804.67;;;;;;;;;;5066946;28;20020;-80
2021/10/24 10:40:57;;;;;;;941.42;821.13;;;;;;;;;;5064607;28;20033;-79
2021/10/24 10:43:24;;;;;;;933.00;800.03;;;;;;;;;;5071458;28;20029;-80
2021/10/24 10:45:52;;;;;;;937.85;813.80;;;;;;;;;;5079228;28;20034;-79
2021/10/24 10:48:37;;;;;;;944.90;825.17;;;;;;;;;;5082312;28;20475;-80
2021/10/24 10:51:04;;;;;;;927.13;781.45;;;;;;;;;;5077328;28;20037;-80
2021/10/24 10:53:34;;;;;;;925.67;780.90;;;;;;;;;;5059389;28;20081;-79
2021/10/24 10:56:03;;;;;;;948.28;835.72;;;;;;;;;;5061518;28;20036;-80
2021/10/24 10:58:33;;;;;;;939.97;814.58;;;;;;;;;;5066249;28;20027;-81
2021/10/24 11:00:59;;;;;;;955.63;849.45;;;;;;;;;;5062959;28;20309;-79
2021/10/24 11:03:44;;;;;;;944.83;823.65;;;;;;;;;;5078664;28;20545;-80
2021/10/24 11:06:11;;;;;;;934.60;795.92;;;;;;;;;;5081692;28;20032;-79
2021/10/24 11:08:53;;;;;;;933.42;804.90;;;;;;;;;;5068444;28;20024;-81
2021/10/24 11:11:38;;;;;;;947.85;838.42;;;;;;;;;;5059906;28;20395;-79
2021/10/24 11:14:18;;;;;;;948.53;838.00;;;;;;;;;;5069294;28;20501;-78
2021/10/24 11:16:51;;;;;;;952.15;845.60;;;;;;;;;;5088928;28;20059;-80
2021/10/24 11:19:29;;;;;;;934.03;809.58;;;;;;;;;;5076829;28;20055;-79
2021/10/24 11:21:59;;;;;;;939.70;818.63;;;;;;;;;;5088005;28;20055;-80
2021/10/24 11:25:04;;;;;;;934.78;809.00;;;;;;;;;;5087744;28;20028;-80
2021/10/24 11:27:34;;;;;;;945.30;834.10;;;;;;;;;;5006705;28;20026;-80
2021/10/24 11:30:02;;;;;;;966.13;860.08;;;;;;;;;;5006171;28;20018;-79
2021/10/24 11:32:35;;;;;;;955.00;848.75;;;;;;;;;;5046075;28;20510;-79
2021/10/24 11:35:16;;;;;;;955.75;850.25;;;;;;;;;;5088878;28;20058;-78
2021/10/24 11:37:47;;;;;;;934.25;809.33;;;;;;;;;;5050088;28;20032;-79
2021/10/24 11:40:17;;;;;;;933.97;811.63;;;;;;;;;;5068535;28;20388;-77
2021/10/24 11:43:02;;;;;;;927.80;798.13;;;;;;;;;;5050253;28;20460;-78
2021/10/24 11:45:31;;;;;;;935.67;812.47;;;;;;;;;;5048305;28;20036;-78
2021/10/24 11:48:02;;;;;;;936.55;815.10;;;;;;;;;;5050476;28;20048;-78
2021/10/24 11:50:44;;;;;;;935.53;814.28;;;;;;;;;;5068815;28;20025;-79
2021/10/24 11:53:10;;;;;;;947.83;834.30;;;;;;;;;;5059464;28;20051;-79
2021/10/24 11:55:37;;;;;;;940.35;821.75;;;;;;;;;;5070569;28;20487;-79
2021/10/24 11:58:21;;;;;;;940.53;829.65;;;;;;;;;;5070139;28;20024;-80
2021/10/24 12:03:13;;;;;;;918.60;766.17;;;;;;;;;;5088377;28;20024;-76
2021/10/24 12:05:39;;;;;;;930.30;794.53;;;;;;;;;;5070238;28;20079;-78
2021/10/24 12:08:05;;;;;;;942.25;829.35;;;;;;;;;;5069779;28;20056;-78
2021/10/24 12:10:37;;;;;;;947.25;838.75;;;;;;;;;;5076676;28;20024;-79
2021/10/24 12:13:04;;;;;;;952.92;847.30;;;;;;;;;;5069995;28;20120;-79
2021/10/24 12:15:37;;;;;;;950.75;843.85;;;;;;;;;;5067957;28;20518;-79
2021/10/24 12:18:16;;;;;;;933.78;805.20;;;;;;;;;;5088097;28;20610;-79
2021/10/24 12:21:03;;;;;;;938.20;820.90;;;;;;;;;;5088330;28;20371;-79
2021/10/24 12:23:30;;;;;;;931.70;795.55;;;;;;;;;;5069734;28;20039;-81
2021/10/24 12:25:57;;;;;;;920.60;765.50;;;;;;;;;;5069757;28;20108;-79
2021/10/24 12:28:36;;;;;;;918.88;764.40;;;;;;;;;;5070610;28;20069;-78
2021/10/24 12:31:28;;;;;;;917.60;758.05;;;;;;;;;;5070019;28;20031;-79
2021/10/24 12:34:11;;;;;;;923.83;768.28;;;;;;;;;;5085948;28;20067;-78
2021/10/24 12:36:39;;;;;;;923.15;775.00;;;;;;;;;;5069917;28;20030;-78
2021/10/24 12:39:08;;;;;;;916.97;755.50;;;;;;;;;;5088278;28;20428;-79
2021/10/24 12:41:44;;;;;;;903.40;718.80;;;;;;;;;;5069509;28;20028;-79
2021/10/24 12:44:10;;;;;;;931.72;798.28;;;;;;;;;;5068283;28;20028;-80
2021/10/24 12:46:38;;;;;;;915.33;756.00;;;;;;;;;;5087951;28;20104;-79
2021/10/24 12:49:14;;;;;;;927.38;790.25;;;;;;;;;;5087828;28;20464;-79
2021/10/24 12:51:41;;;;;;;927.47;785.33;;;;;;;;;;5069809;28;20419;-79
2021/10/24 12:54:08;;;;;;;917.80;761.28;;;;;;;;;;5069778;28;20069;-78
2021/10/24 12:56:35;;;;;;;911.67;751.88;;;;;;;;;;5070025;28;20484;-79
2021/10/24 12:59:01;;;;;;;910.95;746.03;;;;;;;;;;5069066;28;20087;-79
2021/10/24 13:01:29;;;;;;;907.60;734.63;;;;;;;;;;5073937;28;20028;-78
2021/10/24 13:03:55;;;;;;;915.25;750.70;;;;;;;;;;5084240;28;20028;-79
2021/10/24 13:06:22;;;;;;;911.17;737.13;;;;;;;;;;5072731;28;20054;-79
2021/10/24 13:08:48;;;;;;;924.30;772.50;;;;;;;;;;5069978;28;20024;-78
2021/10/24 13:11:15;;;;;;;926.00;786.13;;;;;;;;;;5069433;28;20020;-77
2021/10/24 13:13:42;;;;;;;923.38;775.08;;;;;;;;;;5084888;28;20226;-79
2021/10/24 13:16:08;;;;;;;917.03;763.60;;;;;;;;;;5068564;28;20276;-76
2021/10/24 13:18:34;;;;;;;924.20;784.25;;;;;;;;;;5069310;28;20043;-79
2021/10/24 13:21:03;;;;;;;919.20;767.15;;;;;;;;;;5070294;28;20085;-78
2021/10/24 13:23:29;;;;;;;934.75;810.08;;;;;;;;;;5072918;28;20024;-80
2021/10/24 13:25:57;;;;;;;919.60;774.08;;;;;;;;;;5073332;28;20027;-78
2021/10/24 13:28:23;;;;;;;919.22;770.88;;;;;;;;;;5073297;28;20024;-79
2021/10/24 13:30:49;;;;;;;938.40;821.35;;;;;;;;;;5073209;28;20016;-80
2021/10/24 13:33:16;;;;;;;930.67;800.65;;;;;;;;;;5090474;28;20312;-80
2021/10/24 13:35:46;;;;;;;917.40;759.50;;;;;;;;;;5073055;28;20028;-78
2021/10/24 13:38:13;;;;;;;;;;;;;;;;;;5071857;28;20063;-78
2021/10/24 13:40:40;;;;;;;898.30;688.88;;;;;;;;;;5071264;28;19915;-77
2021/10/24 13:43:06;;;;;;;902.55;706.65;;;;;;;;;;5074519;28;20595;-79
2021/10/24 13:45:33;;;;;;;909.78;731.83;;;;;;;;;;5089284;28;20077;-79
2021/10/24 13:47:59;;;;;;;913.15;744.72;;;;;;;;;;5094611;28;20039;-79
2021/10/24 13:50:26;;;;;;;922.72;779.25;;;;;;;;;;5094010;28;20032;-80
2021/10/24 13:52:52;;;;;;;919.72;770.30;;;;;;;;;;5094268;28;20028;-78
2021/10/24 13:55:18;;;;;;;905.10;735.70;;;;;;;;;;5077526;28;20042;-79
2021/10/24 13:57:44;;;;;;;926.30;788.30;;;;;;;;;;5090000;28;20040;-80